sensor_id;sensor_type;location;lat;lon;timestamp;temperature;humidity
14517;DHT22;7344;50.864;4.362;2024-03-02T00:00:14;7.00;99.90
14517;DHT22;7344;50.864;4.362;2024-03-02T00:02:44;7.00;99.90
14517;DHT22;7344;50.864;4.362;2024-03-02T00:05:13;7.00;99.90
14517;DHT22;7344;50.864;4.362;2024-03-02T00:07:43;7.00;99.90
14517;DHT22;7344;50.864;4.362;2024-03-02T00:10:10;7.00;99.90
14517;DHT22;7344;50.864;4.362;2024-03-02T00:12:37;7.00;99.90
14517;DHT22;7344;50.864;4.362;2024-03-02T00:17:56;7.00;99.90
14517;DHT22;7344;50.864;4.362;2024-03-02T00:20:22;7.10;99.90
14517;DHT22;7344;50.864;4.362;2024-03-02T00:22:49;7.00;99.90
14517;DHT22;7344;50.864;4.362;2024-03-02T00:25:16;7.00;99.90
14517;DHT22;7344;50.864;4.362;2024-03-02T00:27:42;7.00;99.90
14517;DHT22;7344;50.864;4.362;2024-03-02T00:32:55;7.00;99.90
14517;DHT22;7344;50.864;4.362;2024-03-02T00:35:22;7.00;99.90
14517;DHT22;7344;50.864;4.362;2024-03-02T00:37:48;7.00;99.90
14517;DHT22;7344;50.864;4.362;2024-03-02T00:40:14;7.00;99.90
14517;DHT22;7344;50.864;4.362;2024-03-02T00:42:40;7.00;99.90
14517;DHT22;7344;50.864;4.362;2024-03-02T00:45:08;7.00;99.90
14517;DHT22;7344;50.864;4.362;2024-03-02T00:47:38;6.90;99.90
14517;DHT22;7344;50.864;4.362;2024-03-02T00:50:05;7.00;99.90
14517;DHT22;7344;50.864;4.362;2024-03-02T00:52:31;7.00;99.90
14517;DHT22;7344;50.864;4.362;2024-03-02T00:54:58;7.00;99.90
14517;DHT22;7344;50.864;4.362;2024-03-02T00:57:24;7.00;99.90
14517;DHT22;7344;50.864;4.362;2024-03-02T00:59:51;7.00;99.90
14517;DHT22;7344;50.864;4.362;2024-03-02T01:02:17;6.90;99.90
14517;DHT22;7344;50.864;4.362;2024-03-02T01:04:42;7.00;99.90
14517;DHT22;7344;50.864;4.362;2024-03-02T01:07:08;7.00;99.90
14517;DHT22;7344;50.864;4.362;2024-03-02T01:09:33;7.10;99.90
14517;DHT22;7344;50.864;4.362;2024-03-02T01:11:59;7.00;99.90
14517;DHT22;7344;50.864;4.362;2024-03-02T01:14:25;7.00;99.90
14517;DHT22;7344;50.864;4.362;2024-03-02T01:16:50;7.00;99.90
14517;DHT22;7344;50.864;4.362;2024-03-02T01:19:16;7.00;99.90
14517;DHT22;7344;50.864;4.362;2024-03-02T01:21:42;7.00;99.90
14517;DHT22;7344;50.864;4.362;2024-03-02T01:24:07;7.10;99.90
14517;DHT22;7344;50.864;4.362;2024-03-02T01:26:33;7.00;99.90
14517;DHT22;7344;50.864;4.362;2024-03-02T01:28:58;7.00;99.90
14517;DHT22;7344;50.864;4.362;2024-03-02T01:31:24;7.00;99.90
14517;DHT22;7344;50.864;4.362;2024-03-02T01:33:50;7.10;99.90
14517;DHT22;7344;50.864;4.362;2024-03-02T01:36:15;7.00;99.90
14517;DHT22;7344;50.864;4.362;2024-03-02T01:38:41;7.10;99.90
14517;DHT22;7344;50.864;4.362;2024-03-02T01:41:07;7.10;99.90
14517;DHT22;7344;50.864;4.362;2024-03-02T01:43:32;7.10;99.90
14517;DHT22;7344;50.864;4.362;2024-03-02T01:45:58;7.10;99.90
14517;DHT22;7344;50.864;4.362;2024-03-02T01:48:24;7.10;99.90
14517;DHT22;7344;50.864;4.362;2024-03-02T01:50:49;7.10;99.90
14517;DHT22;7344;50.864;4.362;2024-03-02T01:53:15;7.10;99.90
14517;DHT22;7344;50.864;4.362;2024-03-02T01:55:41;7.10;99.90
14517;DHT22;7344;50.864;4.362;2024-03-02T01:58:07;7.10;99.90
14517;DHT22;7344;50.864;4.362;2024-03-02T02:00:32;7.10;99.90
14517;DHT22;7344;50.864;4.362;2024-03-02T02:02:58;7.10;99.90
14517;DHT22;7344;50.864;4.362;2024-03-02T02:05:24;7.20;99.90
14517;DHT22;7344;50.864;4.362;2024-03-02T02:07:49;7.20;99.90
14517;DHT22;7344;50.864;4.362;2024-03-02T02:10:15;7.20;99.90
14517;DHT22;7344;50.864;4.362;2024-03-02T02:12:41;7.20;99.90
14517;DHT22;7344;50.864;4.362;2024-03-02T02:15:29;7.20;99.90
14517;DHT22;7344;50.864;4.362;2024-03-02T02:17:57;7.20;99.90
14517;DHT22;7344;50.864;4.362;2024-03-02T02:20:23;7.20;99.90
14517;DHT22;7344;50.864;4.362;2024-03-02T02:23:01;7.30;99.90
14517;DHT22;7344;50.864;4.362;2024-03-02T02:25:28;7.30;99.90
14517;DHT22;7344;50.864;4.362;2024-03-02T02:27:54;7.30;99.90
14517;DHT22;7344;50.864;4.362;2024-03-02T02:30:31;7.30;99.90
14517;DHT22;7344;50.864;4.362;2024-03-02T02:32:57;7.30;99.90
14517;DHT22;7344;50.864;4.362;2024-03-02T02:35:23;7.20;99.90
14517;DHT22;7344;50.864;4.362;2024-03-02T02:37:53;7.30;99.90
14517;DHT22;7344;50.864;4.362;2024-03-02T02:40:19;7.30;99.90
14517;DHT22;7344;50.864;4.362;2024-03-02T02:42:44;7.20;99.90
14517;DHT22;7344;50.864;4.362;2024-03-02T02:45:10;7.20;99.90
14517;DHT22;7344;50.864;4.362;2024-03-02T02:47:38;7.20;99.90
14517;DHT22;7344;50.864;4.362;2024-03-02T02:50:04;7.20;99.90
14517;DHT22;7344;50.864;4.362;2024-03-02T02:52:36;7.10;99.90
14517;DHT22;7344;50.864;4.362;2024-03-02T02:55:05;7.00;99.90
14517;DHT22;7344;50.864;4.362;2024-03-02T02:57:32;7.00;99.90
14517;DHT22;7344;50.864;4.362;2024-03-02T03:00:07;7.00;99.90
14517;DHT22;7344;50.864;4.362;2024-03-02T03:02:41;6.90;99.90
14517;DHT22;7344;50.864;4.362;2024-03-02T03:05:11;6.90;99.90
14517;DHT22;7344;50.864;4.362;2024-03-02T03:07:36;6.90;99.90
14517;DHT22;7344;50.864;4.362;2024-03-02T03:10:03;6.80;99.90
14517;DHT22;7344;50.864;4.362;2024-03-02T03:12:33;6.80;99.90
14517;DHT22;7344;50.864;4.362;2024-03-02T03:14:59;6.80;99.90
14517;DHT22;7344;50.864;4.362;2024-03-02T03:17:25;6.80;99.90
14517;DHT22;7344;50.864;4.362;2024-03-02T03:19:51;6.70;99.90
14517;DHT22;7344;50.864;4.362;2024-03-02T03:22:17;6.70;99.90
14517;DHT22;7344;50.864;4.362;2024-03-02T03:24:42;6.70;99.90
14517;DHT22;7344;50.864;4.362;2024-03-02T03:27:09;6.60;99.90
14517;DHT22;7344;50.864;4.362;2024-03-02T03:29:36;6.70;99.90
14517;DHT22;7344;50.864;4.362;2024-03-02T03:32:02;6.70;99.90
14517;DHT22;7344;50.864;4.362;2024-03-02T03:34:27;6.70;99.90
14517;DHT22;7344;50.864;4.362;2024-03-02T03:36:54;6.70;99.90
14517;DHT22;7344;50.864;4.362;2024-03-02T03:39:20;6.80;99.90
14517;DHT22;7344;50.864;4.362;2024-03-02T03:41:45;6.80;99.90
14517;DHT22;7344;50.864;4.362;2024-03-02T03:44:11;6.90;99.90
14517;DHT22;7344;50.864;4.362;2024-03-02T03:46:36;6.90;99.90
14517;DHT22;7344;50.864;4.362;2024-03-02T03:49:02;6.90;99.90
14517;DHT22;7344;50.864;4.362;2024-03-02T03:51:29;6.90;99.90
14517;DHT22;7344;50.864;4.362;2024-03-02T03:53:55;6.90;99.90
14517;DHT22;7344;50.864;4.362;2024-03-02T03:56:21;7.00;99.90
14517;DHT22;7344;50.864;4.362;2024-03-02T03:58:46;6.90;99.90
14517;DHT22;7344;50.864;4.362;2024-03-02T04:01:12;7.00;99.90
14517;DHT22;7344;50.864;4.362;2024-03-02T04:03:38;7.00;99.90
14517;DHT22;7344;50.864;4.362;2024-03-02T04:06:04;7.00;99.90
14517;DHT22;7344;50.864;4.362;2024-03-02T04:08:29;7.00;99.90
14517;DHT22;7344;50.864;4.362;2024-03-02T04:10:55;7.00;99.90
14517;DHT22;7344;50.864;4.362;2024-03-02T04:13:21;7.00;99.90
14517;DHT22;7344;50.864;4.362;2024-03-02T04:15:47;6.90;99.90
14517;DHT22;7344;50.864;4.362;2024-03-02T04:18:12;6.90;99.90
14517;DHT22;7344;50.864;4.362;2024-03-02T04:20:38;6.90;99.90
14517;DHT22;7344;50.864;4.362;2024-03-02T04:23:03;6.90;99.90
14517;DHT22;7344;50.864;4.362;2024-03-02T04:25:29;6.90;99.90
14517;DHT22;7344;50.864;4.362;2024-03-02T04:27:54;6.80;99.90
14517;DHT22;7344;50.864;4.362;2024-03-02T04:30:20;6.90;99.90
14517;DHT22;7344;50.864;4.362;2024-03-02T04:32:46;6.90;99.90
14517;DHT22;7344;50.864;4.362;2024-03-02T04:35:12;6.90;99.90
14517;DHT22;7344;50.864;4.362;2024-03-02T04:37:38;6.80;99.90
14517;DHT22;7344;50.864;4.362;2024-03-02T04:40:04;6.80;99.90
14517;DHT22;7344;50.864;4.362;2024-03-02T04:42:33;6.80;99.90
14517;DHT22;7344;50.864;4.362;2024-03-02T04:44:59;6.90;99.90
14517;DHT22;7344;50.864;4.362;2024-03-02T04:47:24;6.80;99.90
14517;DHT22;7344;50.864;4.362;2024-03-02T04:49:50;6.90;99.90
14517;DHT22;7344;50.864;4.362;2024-03-02T04:52:16;6.90;99.90
14517;DHT22;7344;50.864;4.362;2024-03-02T04:54:41;6.80;99.90
14517;DHT22;7344;50.864;4.362;2024-03-02T04:57:26;6.80;99.90
14517;DHT22;7344;50.864;4.362;2024-03-02T04:59:51;6.70;99.90
14517;DHT22;7344;50.864;4.362;2024-03-02T05:02:17;6.80;99.90
14517;DHT22;7344;50.864;4.362;2024-03-02T05:04:42;6.70;99.90
14517;DHT22;7344;50.864;4.362;2024-03-02T05:07:08;6.70;99.90
14517;DHT22;7344;50.864;4.362;2024-03-02T05:09:34;6.70;99.90
14517;DHT22;7344;50.864;4.362;2024-03-02T05:11:59;6.70;99.90
14517;DHT22;7344;50.864;4.362;2024-03-02T05:14:48;6.60;99.90
14517;DHT22;7344;50.864;4.362;2024-03-02T05:17:14;6.60;99.90
14517;DHT22;7344;50.864;4.362;2024-03-02T05:19:39;6.60;99.90
14517;DHT22;7344;50.864;4.362;2024-03-02T05:22:05;6.50;99.90
14517;DHT22;7344;50.864;4.362;2024-03-02T05:24:31;6.50;99.90
14517;DHT22;7344;50.864;4.362;2024-03-02T05:26:56;6.40;99.90
14517;DHT22;7344;50.864;4.362;2024-03-02T05:29:22;6.40;99.90
14517;DHT22;7344;50.864;4.362;2024-03-02T05:31:48;6.50;99.90
14517;DHT22;7344;50.864;4.362;2024-03-02T05:34:14;6.50;99.90
14517;DHT22;7344;50.864;4.362;2024-03-02T05:36:39;6.40;99.90
14517;DHT22;7344;50.864;4.362;2024-03-02T05:39:05;6.40;99.90
14517;DHT22;7344;50.864;4.362;2024-03-02T05:41:37;6.30;99.90
14517;DHT22;7344;50.864;4.362;2024-03-02T05:44:04;6.40;99.90
14517;DHT22;7344;50.864;4.362;2024-03-02T05:46:29;6.30;99.90
14517;DHT22;7344;50.864;4.362;2024-03-02T05:48:55;6.30;99.90
14517;DHT22;7344;50.864;4.362;2024-03-02T05:51:20;6.30;99.90
14517;DHT22;7344;50.864;4.362;2024-03-02T05:53:46;6.30;99.90
14517;DHT22;7344;50.864;4.362;2024-03-02T05:56:11;6.30;99.90
14517;DHT22;7344;50.864;4.362;2024-03-02T05:58:37;6.30;99.90
14517;DHT22;7344;50.864;4.362;2024-03-02T06:01:13;6.30;99.90
14517;DHT22;7344;50.864;4.362;2024-03-02T06:03:38;6.30;99.90
14517;DHT22;7344;50.864;4.362;2024-03-02T06:06:04;6.30;99.90
14517;DHT22;7344;50.864;4.362;2024-03-02T06:08:30;6.30;99.90
14517;DHT22;7344;50.864;4.362;2024-03-02T06:10:56;6.30;99.90
14517;DHT22;7344;50.864;4.362;2024-03-02T06:13:22;6.20;99.90
14517;DHT22;7344;50.864;4.362;2024-03-02T06:15:48;6.30;99.90
14517;DHT22;7344;50.864;4.362;2024-03-02T06:18:14;6.30;99.90
14517;DHT22;7344;50.864;4.362;2024-03-02T06:20:39;6.30;99.90
14517;DHT22;7344;50.864;4.362;2024-03-02T06:23:05;6.30;99.90
14517;DHT22;7344;50.864;4.362;2024-03-02T06:25:30;6.30;99.90
14517;DHT22;7344;50.864;4.362;2024-03-02T06:27:56;6.30;99.90
14517;DHT22;7344;50.864;4.362;2024-03-02T06:30:22;6.30;99.90
14517;DHT22;7344;50.864;4.362;2024-03-02T06:32:47;6.30;99.90
14517;DHT22;7344;50.864;4.362;2024-03-02T06:35:13;6.40;99.90
14517;DHT22;7344;50.864;4.362;2024-03-02T06:37:39;6.30;99.90
14517;DHT22;7344;50.864;4.362;2024-03-02T06:40:08;6.40;99.90
14517;DHT22;7344;50.864;4.362;2024-03-02T06:42:34;6.40;99.90
14517;DHT22;7344;50.864;4.362;2024-03-02T06:45:00;6.40;99.90
14517;DHT22;7344;50.864;4.362;2024-03-02T06:47:25;6.40;99.90
14517;DHT22;7344;50.864;4.362;2024-03-02T06:49:51;6.40;99.90
14517;DHT22;7344;50.864;4.362;2024-03-02T06:52:17;6.40;99.90
14517;DHT22;7344;50.864;4.362;2024-03-02T06:54:42;6.50;99.90
14517;DHT22;7344;50.864;4.362;2024-03-02T06:57:08;6.50;99.90
14517;DHT22;7344;50.864;4.362;2024-03-02T06:59:33;6.50;99.90
14517;DHT22;7344;50.864;4.362;2024-03-02T07:01:59;6.50;99.90
14517;DHT22;7344;50.864;4.362;2024-03-02T07:04:25;6.50;99.90
14517;DHT22;7344;50.864;4.362;2024-03-02T07:06:50;6.60;99.90
14517;DHT22;7344;50.864;4.362;2024-03-02T07:09:16;6.60;99.90
14517;DHT22;7344;50.864;4.362;2024-03-02T07:11:42;6.70;99.90
14517;DHT22;7344;50.864;4.362;2024-03-02T07:14:08;7.00;99.90
14517;DHT22;7344;50.864;4.362;2024-03-02T07:16:33;7.20;99.90
14517;DHT22;7344;50.864;4.362;2024-03-02T07:19:00;7.30;99.90
14517;DHT22;7344;50.864;4.362;2024-03-02T07:21:27;7.50;99.90
14517;DHT22;7344;50.864;4.362;2024-03-02T07:23:53;7.80;99.90
14517;DHT22;7344;50.864;4.362;2024-03-02T07:26:19;8.60;99.90
14517;DHT22;7344;50.864;4.362;2024-03-02T07:28:46;9.20;1.00
14517;DHT22;7344;50.864;4.362;2024-03-02T07:31:13;10.00;1.00
14517;DHT22;7344;50.864;4.362;2024-03-02T07:33:39;10.40;99.90
14517;DHT22;7344;50.864;4.362;2024-03-02T07:36:05;10.90;1.00
14517;DHT22;7344;50.864;4.362;2024-03-02T07:38:30;11.10;1.00
14517;DHT22;7344;50.864;4.362;2024-03-02T07:40:57;11.30;1.00
14517;DHT22;7344;50.864;4.362;2024-03-02T07:43:23;11.70;1.00
14517;DHT22;7344;50.864;4.362;2024-03-02T07:45:48;11.70;1.00
14517;DHT22;7344;50.864;4.362;2024-03-02T07:48:14;11.90;1.00
14517;DHT22;7344;50.864;4.362;2024-03-02T07:50:40;12.30;99.90
14517;DHT22;7344;50.864;4.362;2024-03-02T07:53:06;12.50;99.90
14517;DHT22;7344;50.864;4.362;2024-03-02T07:55:33;12.80;1.00
14517;DHT22;7344;50.864;4.362;2024-03-02T07:57:58;13.00;1.00
14517;DHT22;7344;50.864;4.362;2024-03-02T08:00:25;13.00;1.00
14517;DHT22;7344;50.864;4.362;2024-03-02T08:02:51;13.30;1.00
14517;DHT22;7344;50.864;4.362;2024-03-02T08:05:17;13.30;1.00
14517;DHT22;7344;50.864;4.362;2024-03-02T08:07:45;13.20;1.00
14517;DHT22;7344;50.864;4.362;2024-03-02T08:10:10;12.90;1.00
14517;DHT22;7344;50.864;4.362;2024-03-02T08:12:36;13.40;1.00
14517;DHT22;7344;50.864;4.362;2024-03-02T08:15:02;13.20;1.00
14517;DHT22;7344;50.864;4.362;2024-03-02T08:17:27;13.10;1.00
14517;DHT22;7344;50.864;4.362;2024-03-02T08:19:53;13.30;99.90
14517;DHT22;7344;50.864;4.362;2024-03-02T08:22:19;13.40;99.90
14517;DHT22;7344;50.864;4.362;2024-03-02T08:24:45;13.90;99.90
14517;DHT22;7344;50.864;4.362;2024-03-02T08:27:10;13.80;99.90
14517;DHT22;7344;50.864;4.362;2024-03-02T08:29:36;14.30;99.90
14517;DHT22;7344;50.864;4.362;2024-03-02T08:32:02;14.40;99.90
14517;DHT22;7344;50.864;4.362;2024-03-02T08:34:27;14.90;99.90
14517;DHT22;7344;50.864;4.362;2024-03-02T08:36:53;14.40;99.90
14517;DHT22;7344;50.864;4.362;2024-03-02T08:39:19;13.70;99.90
14517;DHT22;7344;50.864;4.362;2024-03-02T08:41:46;13.60;99.90
14517;DHT22;7344;50.864;4.362;2024-03-02T08:44:13;14.00;99.90
14517;DHT22;7344;50.864;4.362;2024-03-02T08:46:39;14.10;99.90
14517;DHT22;7344;50.864;4.362;2024-03-02T08:49:06;13.60;99.90
14517;DHT22;7344;50.864;4.362;2024-03-02T08:51:32;13.60;99.90
14517;DHT22;7344;50.864;4.362;2024-03-02T08:53:58;13.90;99.90
14517;DHT22;7344;50.864;4.362;2024-03-02T08:56:26;14.00;99.90
14517;DHT22;7344;50.864;4.362;2024-03-02T08:58:52;14.20;99.90
14517;DHT22;7344;50.864;4.362;2024-03-02T09:01:18;14.50;99.90
14517;DHT22;7344;50.864;4.362;2024-03-02T09:03:45;14.10;99.90
14517;DHT22;7344;50.864;4.362;2024-03-02T09:06:11;14.20;99.90
14517;DHT22;7344;50.864;4.362;2024-03-02T09:08:37;13.50;99.90
14517;DHT22;7344;50.864;4.362;2024-03-02T09:11:05;13.20;99.90
14517;DHT22;7344;50.864;4.362;2024-03-02T09:13:31;13.30;99.90
14517;DHT22;7344;50.864;4.362;2024-03-02T09:15:57;13.30;99.90
14517;DHT22;7344;50.864;4.362;2024-03-02T09:18:22;13.00;99.90
14517;DHT22;7344;50.864;4.362;2024-03-02T09:20:48;13.00;99.90
14517;DHT22;7344;50.864;4.362;2024-03-02T09:23:14;13.50;99.90
14517;DHT22;7344;50.864;4.362;2024-03-02T09:25:39;14.10;99.90
14517;DHT22;7344;50.864;4.362;2024-03-02T09:28:05;14.40;99.90
14517;DHT22;7344;50.864;4.362;2024-03-02T09:30:32;13.80;99.90
14517;DHT22;7344;50.864;4.362;2024-03-02T09:32:57;13.60;99.90
14517;DHT22;7344;50.864;4.362;2024-03-02T09:35:24;13.40;99.90
14517;DHT22;7344;50.864;4.362;2024-03-02T09:37:49;12.90;99.90
14517;DHT22;7344;50.864;4.362;2024-03-02T09:40:15;13.10;99.90
14517;DHT22;7344;50.864;4.362;2024-03-02T09:42:42;12.80;99.90
14517;DHT22;7344;50.864;4.362;2024-03-02T09:45:09;12.40;99.90
14517;DHT22;7344;50.864;4.362;2024-03-02T09:47:34;12.00;99.90
14517;DHT22;7344;50.864;4.362;2024-03-02T09:50:00;11.80;1.00
14517;DHT22;7344;50.864;4.362;2024-03-02T09:52:26;11.80;1.00
14517;DHT22;7344;50.864;4.362;2024-03-02T09:54:52;11.50;1.00
14517;DHT22;7344;50.864;4.362;2024-03-02T09:57:18;11.20;99.90
14517;DHT22;7344;50.864;4.362;2024-03-02T09:59:43;11.00;99.90
14517;DHT22;7344;50.864;4.362;2024-03-02T10:02:10;11.40;99.90
14517;DHT22;7344;50.864;4.362;2024-03-02T10:04:36;11.80;1.00
14517;DHT22;7344;50.864;4.362;2024-03-02T10:07:14;12.20;1.00
14517;DHT22;7344;50.864;4.362;2024-03-02T10:09:48;12.70;99.90
14517;DHT22;7344;50.864;4.362;2024-03-02T10:12:16;12.60;99.90
14517;DHT22;7344;50.864;4.362;2024-03-02T10:14:42;12.70;99.90
14517;DHT22;7344;50.864;4.362;2024-03-02T10:17:09;12.90;99.90
14517;DHT22;7344;50.864;4.362;2024-03-02T10:19:36;13.30;99.90
14517;DHT22;7344;50.864;4.362;2024-03-02T10:22:06;13.50;99.90
14517;DHT22;7344;50.864;4.362;2024-03-02T10:24:41;13.00;99.90
14517;DHT22;7344;50.864;4.362;2024-03-02T10:27:08;12.90;99.90
14517;DHT22;7344;50.864;4.362;2024-03-02T10:29:37;13.20;99.90
14517;DHT22;7344;50.864;4.362;2024-03-02T10:32:03;13.30;99.90
14517;DHT22;7344;50.864;4.362;2024-03-02T10:34:28;13.50;99.90
14517;DHT22;7344;50.864;4.362;2024-03-02T10:36:54;13.70;99.90
14517;DHT22;7344;50.864;4.362;2024-03-02T10:39:21;14.10;99.90
14517;DHT22;7344;50.864;4.362;2024-03-02T10:41:49;14.20;99.90
14517;DHT22;7344;50.864;4.362;2024-03-02T10:44:17;14.60;93.40
14517;DHT22;7344;50.864;4.362;2024-03-02T10:46:45;14.30;65.20
14517;DHT22;7344;50.864;4.362;2024-03-02T10:49:11;14.20;93.10
14517;DHT22;7344;50.864;4.362;2024-03-02T10:51:37;14.00;99.50
14517;DHT22;7344;50.864;4.362;2024-03-02T10:54:03;13.70;99.60
14517;DHT22;7344;50.864;4.362;2024-03-02T10:56:41;13.50;99.90
14517;DHT22;7344;50.864;4.362;2024-03-02T10:59:37;13.30;99.90
14517;DHT22;7344;50.864;4.362;2024-03-02T11:02:05;13.00;99.90
14517;DHT22;7344;50.864;4.362;2024-03-02T11:04:34;13.10;99.90
14517;DHT22;7344;50.864;4.362;2024-03-02T11:07:04;13.00;99.90
14517;DHT22;7344;50.864;4.362;2024-03-02T11:09:33;13.00;99.90
14517;DHT22;7344;50.864;4.362;2024-03-02T11:12:03;13.00;99.90
14517;DHT22;7344;50.864;4.362;2024-03-02T11:14:31;12.90;99.90
14517;DHT22;7344;50.864;4.362;2024-03-02T11:16:59;12.70;99.90
14517;DHT22;7344;50.864;4.362;2024-03-02T11:19:25;12.60;99.90
14517;DHT22;7344;50.864;4.362;2024-03-02T11:21:51;12.70;99.90
14517;DHT22;7344;50.864;4.362;2024-03-02T11:26:46;13.30;99.90
14517;DHT22;7344;50.864;4.362;2024-03-02T11:32:04;13.20;99.90
14517;DHT22;7344;50.864;4.362;2024-03-02T11:36:55;12.90;99.90
14517;DHT22;7344;50.864;4.362;2024-03-02T11:39:21;13.10;99.90
14517;DHT22;7344;50.864;4.362;2024-03-02T11:41:47;13.20;99.90
14517;DHT22;7344;50.864;4.362;2024-03-02T11:44:12;13.30;99.90
14517;DHT22;7344;50.864;4.362;2024-03-02T11:46:39;13.30;99.90
14517;DHT22;7344;50.864;4.362;2024-03-02T11:49:05;13.30;99.90
14517;DHT22;7344;50.864;4.362;2024-03-02T11:51:33;13.50;99.90
14517;DHT22;7344;50.864;4.362;2024-03-02T11:54:00;13.60;99.90
14517;DHT22;7344;50.864;4.362;2024-03-02T11:56:27;13.70;99.90
14517;DHT22;7344;50.864;4.362;2024-03-02T11:58:56;13.80;99.90
14517;DHT22;7344;50.864;4.362;2024-03-02T12:01:23;13.80;99.90
14517;DHT22;7344;50.864;4.362;2024-03-02T12:03:49;13.70;99.90
14517;DHT22;7344;50.864;4.362;2024-03-02T12:06:15;13.50;99.90
14517;DHT22;7344;50.864;4.362;2024-03-02T12:08:40;13.20;99.90
14517;DHT22;7344;50.864;4.362;2024-03-02T12:11:06;13.20;99.90
14517;DHT22;7344;50.864;4.362;2024-03-02T12:13:32;13.00;99.90
14517;DHT22;7344;50.864;4.362;2024-03-02T12:15:58;13.10;99.90
14517;DHT22;7344;50.864;4.362;2024-03-02T12:18:24;13.10;99.90
14517;DHT22;7344;50.864;4.362;2024-03-02T12:20:51;13.20;99.90
14517;DHT22;7344;50.864;4.362;2024-03-02T12:23:23;13.20;99.90
14517;DHT22;7344;50.864;4.362;2024-03-02T12:25:49;13.60;99.90
14517;DHT22;7344;50.864;4.362;2024-03-02T12:28:15;13.80;99.90
14517;DHT22;7344;50.864;4.362;2024-03-02T12:30:41;13.80;99.90
14517;DHT22;7344;50.864;4.362;2024-03-02T12:33:06;14.00;99.90
14517;DHT22;7344;50.864;4.362;2024-03-02T12:35:32;14.10;99.90
14517;DHT22;7344;50.864;4.362;2024-03-02T12:37:57;13.90;99.90
14517;DHT22;7344;50.864;4.362;2024-03-02T12:40:23;13.80;99.90
14517;DHT22;7344;50.864;4.362;2024-03-02T12:42:50;13.60;99.90
14517;DHT22;7344;50.864;4.362;2024-03-02T12:45:16;13.60;99.90
14517;DHT22;7344;50.864;4.362;2024-03-02T12:47:49;13.80;99.90
14517;DHT22;7344;50.864;4.362;2024-03-02T12:50:14;13.60;99.90
14517;DHT22;7344;50.864;4.362;2024-03-02T12:52:40;13.40;99.90
14517;DHT22;7344;50.864;4.362;2024-03-02T12:55:06;13.30;99.90
14517;DHT22;7344;50.864;4.362;2024-03-02T12:57:33;13.50;99.90
14517;DHT22;7344;50.864;4.362;2024-03-02T13:00:00;13.60;99.90
14517;DHT22;7344;50.864;4.362;2024-03-02T13:02:30;13.70;99.90
14517;DHT22;7344;50.864;4.362;2024-03-02T13:04:57;13.70;99.90
14517;DHT22;7344;50.864;4.362;2024-03-02T13:07:26;13.60;99.90
14517;DHT22;7344;50.864;4.362;2024-03-02T13:09:53;13.60;99.90
14517;DHT22;7344;50.864;4.362;2024-03-02T13:12:21;13.40;99.90
14517;DHT22;7344;50.864;4.362;2024-03-02T13:14:52;13.30;99.90
14517;DHT22;7344;50.864;4.362;2024-03-02T13:17:18;13.30;99.90
14517;DHT22;7344;50.864;4.362;2024-03-02T13:20:00;13.20;99.90
14517;DHT22;7344;50.864;4.362;2024-03-02T13:22:26;13.10;99.90
14517;DHT22;7344;50.864;4.362;2024-03-02T13:24:52;13.20;99.90
14517;DHT22;7344;50.864;4.362;2024-03-02T13:27:22;13.30;99.90
14517;DHT22;7344;50.864;4.362;2024-03-02T13:29:48;13.40;99.90
14517;DHT22;7344;50.864;4.362;2024-03-02T13:32:17;13.30;99.90
14517;DHT22;7344;50.864;4.362;2024-03-02T13:34:43;13.40;99.90
14517;DHT22;7344;50.864;4.362;2024-03-02T13:37:09;13.30;99.90
14517;DHT22;7344;50.864;4.362;2024-03-02T13:39:35;13.20;99.90
14517;DHT22;7344;50.864;4.362;2024-03-02T13:42:11;13.20;99.90
14517;DHT22;7344;50.864;4.362;2024-03-02T13:44:39;13.30;99.90
14517;DHT22;7344;50.864;4.362;2024-03-02T13:47:05;13.40;99.90
14517;DHT22;7344;50.864;4.362;2024-03-02T13:49:31;13.50;99.90
14517;DHT22;7344;50.864;4.362;2024-03-02T13:52:03;13.50;99.90
14517;DHT22;7344;50.864;4.362;2024-03-02T13:54:30;13.50;99.90
14517;DHT22;7344;50.864;4.362;2024-03-02T13:56:56;13.50;99.90
14517;DHT22;7344;50.864;4.362;2024-03-02T13:59:24;13.60;99.90
14517;DHT22;7344;50.864;4.362;2024-03-02T14:01:50;13.30;99.90
14517;DHT22;7344;50.864;4.362;2024-03-02T14:04:16;13.30;99.90
14517;DHT22;7344;50.864;4.362;2024-03-02T14:06:43;13.20;99.90
14517;DHT22;7344;50.864;4.362;2024-03-02T14:09:09;13.20;99.90
14517;DHT22;7344;50.864;4.362;2024-03-02T14:11:34;13.20;99.90
14517;DHT22;7344;50.864;4.362;2024-03-02T14:14:01;13.30;99.90
14517;DHT22;7344;50.864;4.362;2024-03-02T14:16:27;13.20;99.90
14517;DHT22;7344;50.864;4.362;2024-03-02T14:18:52;13.20;99.90
14517;DHT22;7344;50.864;4.362;2024-03-02T14:21:18;13.10;1.00
14517;DHT22;7344;50.864;4.362;2024-03-02T14:23:43;13.00;99.90
14517;DHT22;7344;50.864;4.362;2024-03-02T14:26:09;12.70;99.90
14517;DHT22;7344;50.864;4.362;2024-03-02T14:28:34;12.60;1.00
14517;DHT22;7344;50.864;4.362;2024-03-02T14:31:00;12.60;1.00
14517;DHT22;7344;50.864;4.362;2024-03-02T14:33:27;12.50;99.90
14517;DHT22;7344;50.864;4.362;2024-03-02T14:35:53;12.40;1.00
14517;DHT22;7344;50.864;4.362;2024-03-02T14:38:19;12.40;99.90
14517;DHT22;7344;50.864;4.362;2024-03-02T14:40:45;12.40;1.00
14517;DHT22;7344;50.864;4.362;2024-03-02T14:43:10;12.50;1.00
14517;DHT22;7344;50.864;4.362;2024-03-02T14:45:36;12.50;1.00
14517;DHT22;7344;50.864;4.362;2024-03-02T14:48:02;12.60;99.90
14517;DHT22;7344;50.864;4.362;2024-03-02T14:50:28;12.60;99.90
14517;DHT22;7344;50.864;4.362;2024-03-02T14:52:54;12.70;1.00
14517;DHT22;7344;50.864;4.362;2024-03-02T14:55:22;12.80;1.00
14517;DHT22;7344;50.864;4.362;2024-03-02T14:57:49;12.90;1.00
14517;DHT22;7344;50.864;4.362;2024-03-02T15:00:14;12.80;99.90
14517;DHT22;7344;50.864;4.362;2024-03-02T15:02:40;12.80;1.00
14517;DHT22;7344;50.864;4.362;2024-03-02T15:05:07;12.80;1.00
14517;DHT22;7344;50.864;4.362;2024-03-02T15:07:32;12.80;1.00
14517;DHT22;7344;50.864;4.362;2024-03-02T15:09:58;12.70;1.00
14517;DHT22;7344;50.864;4.362;2024-03-02T15:12:24;12.60;1.00
14517;DHT22;7344;50.864;4.362;2024-03-02T15:14:49;12.60;1.00
14517;DHT22;7344;50.864;4.362;2024-03-02T15:17:15;12.60;1.00
14517;DHT22;7344;50.864;4.362;2024-03-02T15:19:45;12.50;1.00
14517;DHT22;7344;50.864;4.362;2024-03-02T15:22:11;12.40;1.00
14517;DHT22;7344;50.864;4.362;2024-03-02T15:24:36;12.30;1.00
14517;DHT22;7344;50.864;4.362;2024-03-02T15:27:03;12.20;1.00
14517;DHT22;7344;50.864;4.362;2024-03-02T15:29:31;12.20;1.00
14517;DHT22;7344;50.864;4.362;2024-03-02T15:31:57;12.10;1.00
14517;DHT22;7344;50.864;4.362;2024-03-02T15:34:22;12.10;99.90
14517;DHT22;7344;50.864;4.362;2024-03-02T15:36:49;12.10;99.90
14517;DHT22;7344;50.864;4.362;2024-03-02T15:39:14;12.10;1.00
14517;DHT22;7344;50.864;4.362;2024-03-02T15:41:40;12.20;1.00
14517;DHT22;7344;50.864;4.362;2024-03-02T15:44:06;12.20;99.90
14517;DHT22;7344;50.864;4.362;2024-03-02T15:46:33;12.30;99.90
14517;DHT22;7344;50.864;4.362;2024-03-02T15:48:59;12.20;99.90
14517;DHT22;7344;50.864;4.362;2024-03-02T15:51:26;12.20;99.90
14517;DHT22;7344;50.864;4.362;2024-03-02T15:53:51;12.10;99.90
14517;DHT22;7344;50.864;4.362;2024-03-02T15:56:17;12.10;99.90
14517;DHT22;7344;50.864;4.362;2024-03-02T15:58:43;12.10;99.90
14517;DHT22;7344;50.864;4.362;2024-03-02T16:01:09;12.10;99.90
14517;DHT22;7344;50.864;4.362;2024-03-02T16:03:34;12.10;1.00